Погода Пензана 2 недели

Пензенская область, Россия

23 мая-05 июня
  • 23мая
    Сегодня
    +3°
    +18°
    Ясно и безоблачно
    ВремяПогодаТемператураВлажностьДавлениеВетер, м/сВероятность осадков
    00:00Ясно и безоблачно+13°C91 %751 мм1.7 м/с2 %
    03:00Ясно и безоблачно+10°C64 %752 мм3.3 м/с2 %
    06:00Практически безоблачно+10°C60 %754 мм4.3 м/с2 %
    09:00Облачно с прояснениями+15°C46 %755 мм5.6 м/с2 %
    12:00Практически безоблачно+17°C39 %755 мм5.3 м/с2 %
    15:00Ясно и безоблачно+18°C37 %755 мм6.0 м/с2 %
    18:00Ясно и безоблачно+16°C37 %756 мм5.1 м/с2 %
    21:00Ясно и безоблачно+11°C45 %758 мм4.4 м/с2 %
  • 24мая
    Пятница
    +6°
    +17°
    Ясно и безоблачно
    ВремяПогодаТемператураВлажностьДавлениеВетер, м/сВероятность осадков
    00:00Ясно и безоблачно+6°C51 %759 мм3.7 м/с2 %
    03:00Ясно и безоблачно+4°C59 %760 мм2.5 м/с2 %
    06:00Ясно и безоблачно+6°C62 %761 мм2.8 м/с2 %
    09:00Ясно и безоблачно+11°C40 %761 мм4.2 м/с2 %
    12:00Ясно и безоблачно+15°C39 %761 мм3.4 м/с2 %
    15:00Ясно и безоблачно+16°C40 %761 мм2.8 м/с2 %
    18:00Ясно и безоблачно+16°C43 %760 мм2.2 м/с2 %
    21:00Облачно с прояснениями+11°C72 %761 мм2.5 м/с2 %
  • 25мая
    Суббота
    +8°
    +21°
    Ясно и безоблачно
    ВремяПогодаТемператураВлажностьДавлениеВетер, м/сВероятность осадков
    00:00Облачно с прояснениями+9°C71 %760 мм1.5 м/с2 %
    03:00Практически безоблачно+8°C81 %761 мм1.5 м/с2 %
    06:00Ясно и безоблачно+9°C73 %761 мм1.5 м/с2 %
    09:00Ясно и безоблачно+15°C44 %761 мм2.5 м/с2 %
    12:00Ясно и безоблачно+18°C42 %760 мм2.0 м/с2 %
    15:00Ясно и безоблачно+20°C41 %758 мм2.3 м/с2 %
    18:00Ясно и безоблачно+20°C45 %757 мм2.3 м/с2 %
    21:00Ясно и безоблачно+15°C61 %756 мм2.3 м/с2 %
  • 26мая
    Воскресенье
    +11°
    +24°
    Практически безоблачно
    ВремяПогодаТемператураВлажностьДавлениеВетер, м/сВероятность осадков
    00:00Ясно и безоблачно+11°C72 %756 мм2.2 м/с2 %
    03:00Ясно и безоблачно+10°C72 %755 мм2.4 м/с2 %
    06:00Ясно и безоблачно+12°C69 %755 мм2.9 м/с2 %
    09:00Ясно и безоблачно+19°C47 %755 мм3.5 м/с2 %
    12:00Небольшая облачность+21°C37 %754 мм4.3 м/с2 %
    15:00Практически безоблачно+23°C35 %753 мм4.2 м/с2 %
    18:00Ясно и безоблачно+23°C44 %752 мм2.8 м/с3 %
    21:00Облачно с прояснениями+17°C77 %753 мм3.4 м/с10 %
  • 27мая
    Понедельник
    +7°
    +20°
    Ясно и безоблачно
    ВремяПогодаТемператураВлажностьДавлениеВетер, м/сВероятность осадков
    00:00Облачно с прояснениями+15°C90 %754 мм4.3 м/с36 %
    03:00Ясно и безоблачно+12°C86 %755 мм3.9 м/с36 %
    06:00Ясно и безоблачно+12°C83 %756 мм3.2 м/с9 %
    09:00Ясно и безоблачно+16°C50 %757 мм4.2 м/с5 %
    12:00Ясно и безоблачно+20°C43 %758 мм3.9 м/с2 %
    15:00Ясно и безоблачно+19°C39 %758 мм3.8 м/с5 %
    18:00Ясно и безоблачно+19°C41 %758 мм3.6 м/с2 %
    21:00Ясно и безоблачно+15°C61 %758 мм2.3 м/с2 %
Мы используем cookies
Соглашаюсь